createdAt,value
2022-12-09T00:00:46.270Z,-58
2022-12-09T00:08:18.882Z,-57
2022-12-09T00:15:51.284Z,-58
2022-12-09T00:23:23.746Z,-58
2022-12-09T00:30:56.438Z,-58
2022-12-09T00:38:28.950Z,-57
2022-12-09T00:46:01.486Z,-57
2022-12-09T00:53:33.945Z,-57
2022-12-09T01:01:06.477Z,-57
2022-12-09T01:08:39.514Z,-57
2022-12-09T01:16:12.490Z,-57
2022-12-09T01:23:45.044Z,-59
2022-12-09T01:31:17.684Z,-59
2022-12-09T01:38:50.163Z,-60
2022-12-09T01:46:22.715Z,-59
2022-12-09T01:53:55.081Z,-59
2022-12-09T02:01:27.432Z,-59
2022-12-09T02:08:59.862Z,-59
2022-12-09T02:16:32.481Z,-59
2022-12-09T02:24:04.893Z,-59
2022-12-09T02:31:37.297Z,-59
2022-12-09T02:39:09.912Z,-59
2022-12-09T02:46:42.594Z,-59
2022-12-09T02:54:15.339Z,-59
2022-12-09T03:01:47.761Z,-58
2022-12-09T03:09:20.294Z,-58
2022-12-09T03:16:52.670Z,-57
2022-12-09T03:24:25.008Z,-57
2022-12-09T03:31:57.353Z,-58
2022-12-09T03:39:29.696Z,-57
2022-12-09T03:47:02.553Z,-59
2022-12-09T03:54:34.993Z,-57
2022-12-09T04:02:07.981Z,-58
2022-12-09T04:09:40.586Z,-58
2022-12-09T04:17:13.124Z,-57
2022-12-09T04:24:45.761Z,-58
2022-12-09T04:32:18.371Z,-57
2022-12-09T04:38:31.007Z,-57
2022-12-09T04:39:18.279Z,-58
2022-12-09T04:46:50.884Z,-57
2022-12-09T04:54:23.530Z,-58
2022-12-09T05:01:56.144Z,-57
2022-12-09T05:09:28.687Z,-58
2022-12-09T05:17:01.567Z,-57
2022-12-09T05:24:34.350Z,-57
2022-12-09T05:25:21.690Z,-58
2022-12-09T05:26:09.386Z,-58
2022-12-09T05:26:57.061Z,-57
2022-12-09T05:27:44.507Z,-58
2022-12-09T05:28:31.868Z,-57
2022-12-09T05:29:22.745Z,-57
2022-12-09T05:30:10.975Z,-57
2022-12-09T05:30:58.582Z,-57
2022-12-09T05:31:46.086Z,-57
2022-12-09T05:32:33.607Z,-57
2022-12-09T05:33:21.158Z,-57
2022-12-09T05:34:08.731Z,-57
2022-12-09T05:34:56.890Z,-57
2022-12-09T05:35:52.372Z,-57
2022-12-09T05:36:40.948Z,-57
2022-12-09T05:37:28.611Z,-57
2022-12-09T05:38:16.251Z,-57
2022-12-09T05:39:03.829Z,-57
2022-12-09T05:39:51.415Z,-57
2022-12-09T05:40:38.734Z,-58
2022-12-09T05:41:26.202Z,-56
2022-12-09T05:42:13.830Z,-58
2022-12-09T05:43:01.186Z,-56
2022-12-09T05:43:48.549Z,-57
2022-12-09T05:44:36.268Z,-57
2022-12-09T05:45:23.978Z,-57
2022-12-09T05:46:11.602Z,-59
2022-12-09T05:46:59.045Z,-57
2022-12-09T05:47:47.078Z,-60
2022-12-09T05:48:34.710Z,-58
2022-12-09T05:49:22.903Z,-58
2022-12-09T05:50:11.455Z,-58
2022-12-09T05:50:59.438Z,-58
2022-12-09T05:51:47.201Z,-57
2022-12-09T05:52:34.625Z,-57
2022-12-09T05:53:22.016Z,-57
2022-12-09T05:54:09.676Z,-58
2022-12-09T05:54:57.511Z,-60
2022-12-09T05:55:44.938Z,-58
2022-12-09T05:56:32.541Z,-58
2022-12-09T05:57:20.051Z,-60
2022-12-09T05:58:08.055Z,-58
2022-12-09T05:58:55.648Z,-59
2022-12-09T05:59:43.159Z,-59
2022-12-09T06:00:30.461Z,-58
2022-12-09T06:01:18.006Z,-59
2022-12-09T06:02:09.952Z,-59
2022-12-09T06:02:57.832Z,-61
2022-12-09T06:03:45.691Z,-59
2022-12-09T06:04:33.349Z,-60
2022-12-09T06:05:21.166Z,-60
2022-12-09T06:06:09.241Z,-61
2022-12-09T06:06:56.902Z,-62
2022-12-09T06:07:44.831Z,-60
2022-12-09T06:08:32.555Z,-59
2022-12-09T06:09:20.362Z,-58
2022-12-09T06:10:08.438Z,-58
2022-12-09T06:10:56.195Z,-59
2022-12-09T06:11:43.786Z,-59
2022-12-09T06:12:31.616Z,-60
2022-12-09T06:13:18.920Z,-64
2022-12-09T06:14:06.587Z,-60
2022-12-09T06:14:54.383Z,-59
2022-12-09T06:15:41.836Z,-61
2022-12-09T06:16:29.343Z,-62
2022-12-09T06:17:17.282Z,-61
2022-12-09T06:18:04.906Z,-61
2022-12-09T06:18:52.661Z,-58
2022-12-09T06:19:40.174Z,-59
2022-12-09T06:20:28.001Z,-59
2022-12-09T06:21:15.301Z,-61
2022-12-09T06:22:02.765Z,-59
2022-12-09T06:22:50.272Z,-61
2022-12-09T06:23:37.927Z,-59
2022-12-09T06:24:25.729Z,-59
2022-12-09T06:25:13.463Z,-62
2022-12-09T06:26:01.561Z,-60
2022-12-09T06:26:49.391Z,-59
2022-12-09T06:27:36.765Z,-58
2022-12-09T06:28:24.497Z,-58
2022-12-09T06:29:12.228Z,-59
2022-12-09T06:29:59.592Z,-58
2022-12-09T06:30:47.192Z,-58
2022-12-09T06:31:35.012Z,-57
2022-12-09T06:32:22.626Z,-59
2022-12-09T06:33:36.802Z,-60
2022-12-09T06:34:07.609Z,-61
2022-12-09T06:34:55.273Z,-60
2022-12-09T06:35:43.208Z,-62
2022-12-09T06:36:31.294Z,-57
2022-12-09T06:37:18.856Z,-59
2022-12-09T06:38:06.473Z,-62
2022-12-09T06:38:54.053Z,-62
2022-12-09T06:39:41.853Z,-60
2022-12-09T06:40:29.541Z,-60
2022-12-09T06:41:17.286Z,-60
2022-12-09T06:42:05.589Z,-60
2022-12-09T06:42:53.224Z,-59
2022-12-09T06:43:40.717Z,-61
2022-12-09T06:44:28.018Z,-60
2022-12-09T06:45:15.793Z,-60
2022-12-09T06:46:03.724Z,-59
2022-12-09T06:46:51.292Z,-60
2022-12-09T06:47:38.803Z,-59
2022-12-09T06:48:26.503Z,-60
2022-12-09T06:49:14.413Z,-61
2022-12-09T06:50:06.718Z,-60
2022-12-09T06:50:54.553Z,-59
2022-12-09T06:51:42.785Z,-58
2022-12-09T06:52:30.110Z,-59
2022-12-09T06:53:17.729Z,-59
2022-12-09T06:54:05.273Z,-58
2022-12-09T06:54:52.680Z,-57
2022-12-09T06:55:40.535Z,-57
2022-12-09T06:56:27.832Z,-58
2022-12-09T06:57:15.113Z,-61
2022-12-09T06:58:02.940Z,-61
2022-12-09T06:58:50.611Z,-60
2022-12-09T06:59:38.173Z,-60
2022-12-09T07:00:26.012Z,-58
2022-12-09T07:01:13.838Z,-59
2022-12-09T07:02:01.934Z,-60
2022-12-09T07:02:49.615Z,-60
2022-12-09T07:03:37.808Z,-59
2022-12-09T07:04:25.940Z,-61
2022-12-09T07:05:14.544Z,-61
2022-12-09T07:06:02.615Z,-61
2022-12-09T07:06:50.403Z,-62
2022-12-09T07:07:38.115Z,-64
2022-12-09T07:08:25.631Z,-60
2022-12-09T07:09:13.193Z,-62
2022-12-09T07:10:01.126Z,-62
2022-12-09T07:10:54.699Z,-61
2022-12-09T07:11:43.925Z,-61
2022-12-09T07:12:31.589Z,-59
2022-12-09T07:13:18.922Z,-64
2022-12-09T07:14:06.732Z,-59
2022-12-09T07:14:54.143Z,-59
2022-12-09T07:15:41.659Z,-60
2022-12-09T07:16:29.381Z,-60
2022-12-09T07:17:17.087Z,-61
2022-12-09T07:18:05.308Z,-61
2022-12-09T07:18:52.785Z,-62
2022-12-09T07:19:40.802Z,-63
2022-12-09T07:20:28.486Z,-59
2022-12-09T07:21:15.866Z,-63
2022-12-09T07:22:03.700Z,-61
2022-12-09T07:22:51.445Z,-61
2022-12-09T07:23:38.990Z,-64
2022-12-09T07:24:26.663Z,-60
2022-12-09T07:25:14.847Z,-60
2022-12-09T07:26:02.507Z,-60
2022-12-09T07:26:50.157Z,-61
2022-12-09T07:27:38.122Z,-60
2022-12-09T07:28:25.726Z,-59
2022-12-09T07:29:13.401Z,-58
2022-12-09T07:30:01.168Z,-60
2022-12-09T07:30:48.812Z,-58
2022-12-09T07:31:36.589Z,-59
2022-12-09T07:32:24.347Z,-61
2022-12-09T07:33:12.270Z,-62
2022-12-09T07:34:00.032Z,-61
2022-12-09T07:34:47.917Z,-63
2022-12-09T07:35:35.462Z,-61
2022-12-09T07:36:23.193Z,-62
2022-12-09T07:37:11.455Z,-61
2022-12-09T07:37:59.239Z,-60
2022-12-09T07:38:47.039Z,-63
2022-12-09T07:39:34.760Z,-61
2022-12-09T07:40:22.162Z,-59
2022-12-09T07:41:09.603Z,-60
2022-12-09T07:41:57.028Z,-60
2022-12-09T07:42:44.659Z,-63
2022-12-09T07:43:32.407Z,-59
2022-12-09T07:44:19.930Z,-60
2022-12-09T07:45:08.090Z,-61
2022-12-09T07:45:55.940Z,-61
2022-12-09T07:46:44.006Z,-61
2022-12-09T07:47:31.829Z,-60
2022-12-09T07:48:19.427Z,-60
2022-12-09T07:49:07.402Z,-60
2022-12-09T07:49:55.263Z,-63
2022-12-09T07:50:43.423Z,-59
2022-12-09T07:51:31.415Z,-61
2022-12-09T07:52:19.195Z,-63
2022-12-09T07:53:06.822Z,-64
2022-12-09T07:53:54.778Z,-60
2022-12-09T07:54:42.239Z,-60
2022-12-09T07:55:30.074Z,-61
2022-12-09T07:56:17.703Z,-64
2022-12-09T07:57:05.149Z,-64
2022-12-09T07:57:52.909Z,-63
2022-12-09T07:58:40.372Z,-65
2022-12-09T07:59:27.812Z,-62
2022-12-09T08:00:15.350Z,-63
2022-12-09T08:01:03.017Z,-63
2022-12-09T08:01:50.482Z,-59
2022-12-09T08:02:38.004Z,-62
2022-12-09T08:03:26.229Z,-63
2022-12-09T08:04:14.285Z,-60
2022-12-09T08:05:02.249Z,-60
2022-12-09T08:05:49.972Z,-60
2022-12-09T08:06:37.998Z,-60
2022-12-09T08:07:25.725Z,-60
2022-12-09T08:08:13.702Z,-61
2022-12-09T08:09:01.747Z,-61
2022-12-09T08:09:49.790Z,-63
2022-12-09T08:10:37.655Z,-62
2022-12-09T08:11:25.409Z,-61
2022-12-09T08:12:13.525Z,-59
2022-12-09T08:13:01.245Z,-61
2022-12-09T08:13:49.031Z,-60
2022-12-09T08:14:36.687Z,-61
2022-12-09T08:15:24.409Z,-62
2022-12-09T08:16:11.804Z,-62
2022-12-09T08:16:59.860Z,-61
2022-12-09T08:17:48.055Z,-61
2022-12-09T08:18:35.739Z,-60
2022-12-09T08:19:23.730Z,-59
2022-12-09T08:20:11.472Z,-59
2022-12-09T08:20:59.502Z,-59
2022-12-09T08:21:52.854Z,-62
2022-12-09T08:22:41.972Z,-64
2022-12-09T08:23:29.648Z,-60
2022-12-09T08:24:17.228Z,-63
2022-12-09T08:25:04.782Z,-63
2022-12-09T08:25:52.376Z,-63
2022-12-09T08:26:40.302Z,-65
2022-12-09T08:27:28.124Z,-65
2022-12-09T08:28:15.767Z,-64
2022-12-09T08:29:03.404Z,-62
2022-12-09T08:29:50.874Z,-63
2022-12-09T08:30:38.658Z,-60
2022-12-09T08:31:26.565Z,-59
2022-12-09T08:32:14.380Z,-59
2022-12-09T08:33:01.914Z,-60
2022-12-09T08:33:49.266Z,-59
2022-12-09T08:34:37.329Z,-60
2022-12-09T08:35:24.976Z,-62
2022-12-09T08:36:12.456Z,-59
2022-12-09T08:37:02.318Z,-59
2022-12-09T08:37:50.295Z,-63
2022-12-09T08:38:37.720Z,-60
2022-12-09T08:39:25.679Z,-61
2022-12-09T08:40:13.745Z,-61
2022-12-09T08:41:01.859Z,-60
2022-12-09T08:41:49.593Z,-60
2022-12-09T08:42:37.264Z,-61
2022-12-09T08:43:25.173Z,-61
2022-12-09T08:44:12.935Z,-61
2022-12-09T08:45:02.340Z,-61
2022-12-09T08:45:50.897Z,-61
2022-12-09T08:46:38.478Z,-62
2022-12-09T08:47:26.314Z,-60
2022-12-09T08:48:14.307Z,-63
2022-12-09T08:49:01.958Z,-61
2022-12-09T08:49:49.938Z,-63
2022-12-09T08:50:37.555Z,-65
2022-12-09T08:51:24.990Z,-64
2022-12-09T08:52:12.283Z,-62
2022-12-09T08:52:59.695Z,-62
2022-12-09T08:53:47.033Z,-62
2022-12-09T08:54:34.575Z,-62
2022-12-09T08:55:22.186Z,-62
2022-12-09T08:56:09.670Z,-63
2022-12-09T08:56:57.786Z,-67
2022-12-09T08:57:45.308Z,-64
2022-12-09T08:58:32.846Z,-66
2022-12-09T08:59:20.251Z,-66
2022-12-09T09:00:08.273Z,-67
2022-12-09T09:00:56.083Z,-65
2022-12-09T09:01:43.833Z,-66
2022-12-09T09:02:31.743Z,-64
2022-12-09T09:03:19.968Z,-64
2022-12-09T09:04:08.008Z,-63
2022-12-09T09:04:56.033Z,-66
2022-12-09T09:05:44.216Z,-66
2022-12-09T09:06:32.324Z,-63
2022-12-09T09:07:20.253Z,-63
2022-12-09T09:08:08.245Z,-62
2022-12-09T09:08:55.665Z,-62
2022-12-09T09:09:43.262Z,-62
2022-12-09T09:10:31.242Z,-63
2022-12-09T09:11:18.855Z,-63
2022-12-09T09:12:06.804Z,-65
2022-12-09T09:12:54.863Z,-63
2022-12-09T09:13:42.853Z,-63
2022-12-09T09:14:30.664Z,-64
2022-12-09T09:15:18.115Z,-62
2022-12-09T09:16:05.757Z,-62
2022-12-09T09:16:53.555Z,-63
2022-12-09T09:17:43.195Z,-67
2022-12-09T09:18:34.291Z,-64
2022-12-09T09:19:22.047Z,-63
2022-12-09T09:20:10.357Z,-62
2022-12-09T09:20:58.338Z,-62
2022-12-09T09:21:45.777Z,-64
2022-12-09T09:22:33.361Z,-62
2022-12-09T09:23:20.919Z,-64
2022-12-09T09:24:08.673Z,-60
2022-12-09T09:24:56.266Z,-60
2022-12-09T09:25:44.243Z,-61
2022-12-09T09:26:31.822Z,-59
2022-12-09T09:27:19.165Z,-61
2022-12-09T09:28:06.909Z,-60
2022-12-09T09:28:54.456Z,-60
2022-12-09T09:29:41.943Z,-61
2022-12-09T09:30:29.261Z,-63
2022-12-09T09:31:16.805Z,-62
2022-12-09T09:32:04.830Z,-66
2022-12-09T09:32:52.742Z,-63
2022-12-09T09:33:40.608Z,-60
2022-12-09T09:34:28.249Z,-66
2022-12-09T09:35:16.444Z,-64
2022-12-09T09:36:09.614Z,-60
2022-12-09T09:36:57.848Z,-59
2022-12-09T09:37:45.375Z,-59
2022-12-09T09:38:33.292Z,-61
2022-12-09T09:39:20.904Z,-61
2022-12-09T09:40:08.957Z,-60
2022-12-09T09:40:56.818Z,-61
2022-12-09T09:41:44.563Z,-60
2022-12-09T09:42:32.055Z,-61
2022-12-09T09:43:19.600Z,-61
2022-12-09T09:44:07.169Z,-61
2022-12-09T09:44:54.915Z,-61
2022-12-09T09:45:42.553Z,-61
2022-12-09T09:46:30.231Z,-61
2022-12-09T09:47:17.958Z,-61
2022-12-09T09:48:05.718Z,-63
2022-12-09T09:48:53.742Z,-66
2022-12-09T09:49:41.392Z,-64
2022-12-09T09:50:29.291Z,-65
2022-12-09T09:51:17.158Z,-64
2022-12-09T09:52:04.688Z,-62
2022-12-09T09:52:52.511Z,-63
2022-12-09T09:53:40.056Z,-62
2022-12-09T09:54:28.064Z,-64
2022-12-09T09:55:15.468Z,-63
2022-12-09T09:56:02.930Z,-63
2022-12-09T09:56:50.466Z,-64
2022-12-09T09:57:38.514Z,-60
2022-12-09T09:58:26.325Z,-59
2022-12-09T09:59:14.242Z,-59
2022-12-09T10:00:08.481Z,-59
2022-12-09T10:00:56.829Z,-59
2022-12-09T10:01:44.772Z,-58
2022-12-09T10:02:32.610Z,-59
2022-12-09T10:03:20.901Z,-58
2022-12-09T10:04:08.712Z,-59
2022-12-09T10:04:56.516Z,-59
2022-12-09T10:05:44.529Z,-59
2022-12-09T10:06:32.295Z,-58
2022-12-09T10:07:20.152Z,-58
2022-12-09T10:08:08.214Z,-59
2022-12-09T10:08:56.334Z,-58
2022-12-09T10:09:44.343Z,-58
2022-12-09T10:10:32.375Z,-59
2022-12-09T10:11:20.336Z,-60
2022-12-09T10:12:08.676Z,-59
2022-12-09T10:13:03.053Z,-60
2022-12-09T10:13:53.694Z,-59
2022-12-09T10:14:41.789Z,-59
2022-12-09T10:15:29.500Z,-59
2022-12-09T10:16:17.633Z,-60
2022-12-09T10:17:05.646Z,-59
2022-12-09T10:17:53.323Z,-59
2022-12-09T10:18:41.374Z,-58
2022-12-09T10:19:29.221Z,-59
2022-12-09T10:20:17.447Z,-60
2022-12-09T10:21:05.141Z,-59
2022-12-09T10:21:53.039Z,-59
2022-12-09T10:22:40.622Z,-60
2022-12-09T10:23:28.528Z,-60
2022-12-09T10:24:16.030Z,-60
2022-12-09T10:25:04.352Z,-65
2022-12-09T10:25:51.967Z,-60
2022-12-09T10:26:40.018Z,-60
2022-12-09T10:27:27.825Z,-59
2022-12-09T10:28:15.519Z,-59
2022-12-09T10:29:03.154Z,-62
2022-12-09T10:29:50.687Z,-62
2022-12-09T10:30:44.365Z,-64
2022-12-09T10:31:32.911Z,-66
2022-12-09T10:32:20.570Z,-63
2022-12-09T10:33:08.078Z,-61
2022-12-09T10:33:55.727Z,-65
2022-12-09T10:34:43.413Z,-64
2022-12-09T10:35:31.051Z,-64
2022-12-09T10:36:18.730Z,-65
2022-12-09T10:37:06.508Z,-60
2022-12-09T10:37:54.230Z,-60
2022-12-09T10:38:41.909Z,-64
2022-12-09T10:39:29.299Z,-64
2022-12-09T10:40:17.945Z,-62
2022-12-09T10:41:05.736Z,-64
2022-12-09T10:41:53.360Z,-62
2022-12-09T10:42:41.092Z,-61
2022-12-09T10:43:28.701Z,-62
2022-12-09T10:44:16.180Z,-64
2022-12-09T10:45:03.884Z,-62
2022-12-09T10:46:17.255Z,-62
2022-12-09T10:46:48.675Z,-65
2022-12-09T10:47:36.499Z,-61
2022-12-09T10:48:27.870Z,-63
2022-12-09T10:49:18.468Z,-62
2022-12-09T10:50:06.427Z,-64
2022-12-09T10:50:54.080Z,-63
2022-12-09T10:51:41.707Z,-60
2022-12-09T10:52:29.143Z,-64
2022-12-09T10:53:16.640Z,-66
2022-12-09T10:54:04.456Z,-62
2022-12-09T10:54:52.263Z,-61
2022-12-09T10:55:39.840Z,-63
2022-12-09T10:56:27.447Z,-63
2022-12-09T10:57:15.119Z,-62
2022-12-09T10:58:02.760Z,-62
2022-12-09T10:58:50.402Z,-63
2022-12-09T10:59:38.084Z,-61
2022-12-09T11:00:29.615Z,-60
2022-12-09T11:01:20.901Z,-60
2022-12-09T11:02:08.779Z,-58
2022-12-09T11:02:56.784Z,-58
2022-12-09T11:03:44.349Z,-59
2022-12-09T11:04:32.763Z,-58
2022-12-09T11:05:20.844Z,-63
2022-12-09T11:06:08.463Z,-59
2022-12-09T11:06:59.830Z,-59
2022-12-09T11:07:48.420Z,-60
2022-12-09T11:08:36.358Z,-60
2022-12-09T11:09:24.214Z,-59
2022-12-09T11:10:12.429Z,-58
2022-12-09T11:11:00.404Z,-58
2022-12-09T11:11:48.041Z,-59
2022-12-09T11:12:40.632Z,-59
2022-12-09T11:13:28.968Z,-59
2022-12-09T11:14:16.602Z,-59
2022-12-09T11:15:04.431Z,-61
2022-12-09T11:15:52.028Z,-60
2022-12-09T11:16:39.469Z,-59
2022-12-09T11:17:27.594Z,-59
2022-12-09T11:18:15.151Z,-59
2022-12-09T11:19:03.312Z,-59
2022-12-09T11:19:51.468Z,-60
2022-12-09T11:20:40.150Z,-60
2022-12-09T11:21:28.171Z,-61
2022-12-09T11:22:16.071Z,-60
2022-12-09T11:23:03.611Z,-60
2022-12-09T11:23:57.191Z,-61
2022-12-09T11:24:49.054Z,-63
2022-12-09T11:25:36.877Z,-64
2022-12-09T11:33:04.384Z,-61
2022-12-09T11:33:52.088Z,-60
2022-12-09T11:34:39.830Z,-60
2022-12-09T11:35:27.970Z,-60
2022-12-09T11:36:15.832Z,-60
2022-12-09T11:37:03.152Z,-59
2022-12-09T11:37:50.441Z,-60
2022-12-09T11:38:37.714Z,-60
2022-12-09T11:39:25.074Z,-60
2022-12-09T11:40:12.349Z,-60
2022-12-09T11:40:59.655Z,-60
2022-12-09T11:41:47.002Z,-60
2022-12-09T11:42:34.276Z,-60
2022-12-09T11:43:21.553Z,-59
2022-12-09T11:44:08.860Z,-59
2022-12-09T11:44:56.160Z,-59
2022-12-09T11:45:43.436Z,-59
2022-12-09T11:46:30.743Z,-59
2022-12-09T11:47:18.196Z,-60
2022-12-09T11:49:02.733Z,-59
2022-12-09T11:49:50.282Z,-59
2022-12-09T11:50:37.707Z,-59
2022-12-09T11:51:25.057Z,-60
2022-12-09T11:52:12.434Z,-61
2022-12-09T11:52:59.699Z,-61
2022-12-09T11:53:46.995Z,-61
2022-12-09T11:54:34.434Z,-61
2022-12-09T11:55:21.702Z,-60
2022-12-09T11:56:09.007Z,-60
2022-12-09T11:56:56.409Z,-60
2022-12-09T11:57:43.703Z,-60
2022-12-09T11:58:31.022Z,-60
2022-12-09T11:59:18.460Z,-62
2022-12-09T12:00:06.164Z,-62
2022-12-09T12:00:53.669Z,-60
2022-12-09T12:01:41.030Z,-62
2022-12-09T12:02:28.416Z,-65
2022-12-09T12:03:15.847Z,-62
2022-12-09T12:04:03.188Z,-63
2022-12-09T12:04:50.501Z,-60
2022-12-09T12:05:37.780Z,-61
2022-12-09T12:06:25.245Z,-62
2022-12-09T12:07:12.520Z,-63
2022-12-09T12:07:59.886Z,-63
2022-12-09T12:08:47.398Z,-63
2022-12-09T12:09:34.843Z,-61
2022-12-09T12:10:22.200Z,-61
2022-12-09T12:11:15.094Z,-64
2022-12-09T12:12:02.961Z,-62
2022-12-09T12:12:50.353Z,-64
2022-12-09T12:13:37.669Z,-61
2022-12-09T12:14:24.958Z,-61
2022-12-09T12:15:12.368Z,-61
2022-12-09T12:15:59.667Z,-61
2022-12-09T12:16:46.971Z,-60
2022-12-09T12:17:34.414Z,-62
2022-12-09T12:18:21.786Z,-63
2022-12-09T12:19:09.185Z,-60
2022-12-09T12:19:56.514Z,-63
2022-12-09T12:20:43.852Z,-60
2022-12-09T12:21:31.206Z,-60
2022-12-09T12:22:18.709Z,-61
2022-12-09T12:23:06.010Z,-60
2022-12-09T12:23:53.294Z,-61
2022-12-09T12:24:40.729Z,-62
2022-12-09T12:25:28.024Z,-66
2022-12-09T12:26:15.345Z,-63
2022-12-09T12:27:02.762Z,-62
2022-12-09T12:27:50.036Z,-62
2022-12-09T12:28:37.329Z,-61
2022-12-09T12:29:24.729Z,-59
2022-12-09T12:30:12.092Z,-61
2022-12-09T12:30:59.476Z,-59
2022-12-09T12:31:46.962Z,-60
2022-12-09T12:32:34.280Z,-61
2022-12-09T12:34:00.384Z,-61
2022-12-09T12:34:26.113Z,-63
2022-12-09T12:35:13.477Z,-60
2022-12-09T12:36:00.900Z,-62
2022-12-09T12:36:48.178Z,-60
2022-12-09T12:37:35.447Z,-59
2022-12-09T12:38:22.881Z,-61
2022-12-09T12:39:10.192Z,-59
2022-12-09T12:39:57.514Z,-61
2022-12-09T12:40:44.904Z,-60
2022-12-09T12:41:32.235Z,-61
2022-12-09T12:42:19.584Z,-59
2022-12-09T12:43:06.943Z,-59
2022-12-09T12:43:54.273Z,-62
2022-12-09T12:44:41.590Z,-65
2022-12-09T12:45:29.161Z,-62
2022-12-09T12:46:16.621Z,-65
2022-12-09T12:47:03.950Z,-61
2022-12-09T12:47:51.408Z,-63
2022-12-09T12:48:38.724Z,-60
2022-12-09T12:49:26.070Z,-60
2022-12-09T12:50:13.455Z,-60
2022-12-09T12:51:00.790Z,-60
2022-12-09T12:51:53.845Z,-59
2022-12-09T12:52:57.307Z,-59
2022-12-09T12:53:38.903Z,-60
2022-12-09T12:54:26.265Z,-60
2022-12-09T12:55:13.568Z,-61
2022-12-09T12:56:00.876Z,-61
2022-12-09T12:56:48.242Z,-61
2022-12-09T12:57:36.171Z,-64
2022-12-09T12:58:23.497Z,-61
2022-12-09T12:59:10.867Z,-62
2022-12-09T12:59:58.153Z,-63
2022-12-09T13:00:45.494Z,-62
2022-12-09T13:01:32.917Z,-60
2022-12-09T13:02:20.448Z,-59
2022-12-09T13:03:09.541Z,-61
2022-12-09T13:03:56.859Z,-59
2022-12-09T13:04:44.391Z,-59
2022-12-09T13:05:31.682Z,-59
2022-12-09T13:06:19.010Z,-63
2022-12-09T13:07:06.381Z,-61
2022-12-09T13:07:53.782Z,-62
2022-12-09T13:08:41.139Z,-62
2022-12-09T13:09:28.568Z,-62
2022-12-09T13:10:15.869Z,-62
2022-12-09T13:11:03.206Z,-64
2022-12-09T13:11:50.816Z,-63
2022-12-09T13:12:38.542Z,-61
2022-12-09T13:13:25.853Z,-60
2022-12-09T13:14:13.179Z,-60
2022-12-09T13:15:00.470Z,-61
2022-12-09T13:15:47.784Z,-61
2022-12-09T13:16:35.135Z,-61
2022-12-09T13:17:22.469Z,-61
2022-12-09T13:18:09.789Z,-63
2022-12-09T13:18:57.097Z,-61
2022-12-09T13:19:44.460Z,-62
2022-12-09T13:20:31.733Z,-60
2022-12-09T13:21:19.050Z,-64
2022-12-09T13:22:06.457Z,-60
2022-12-09T13:22:53.778Z,-61
2022-12-09T13:23:41.079Z,-64
2022-12-09T13:24:28.523Z,-62
2022-12-09T13:25:15.808Z,-61
2022-12-09T13:26:03.111Z,-60
2022-12-09T13:26:50.507Z,-60
2022-12-09T13:27:37.824Z,-63
2022-12-09T13:28:25.159Z,-61
2022-12-09T13:29:12.592Z,-62
2022-12-09T13:29:59.870Z,-65
2022-12-09T13:30:51.153Z,-66
2022-12-09T13:31:41.442Z,-62
2022-12-09T13:32:28.842Z,-65
2022-12-09T13:33:16.124Z,-61
2022-12-09T13:34:03.848Z,-61
2022-12-09T13:34:51.130Z,-63
2022-12-09T13:35:38.565Z,-62
2022-12-09T13:36:25.857Z,-62
2022-12-09T13:37:13.226Z,-62
2022-12-09T13:38:00.512Z,-63
2022-12-09T13:38:47.829Z,-62
2022-12-09T13:39:35.148Z,-63
2022-12-09T13:40:22.972Z,-62
2022-12-09T13:41:10.252Z,-64
2022-12-09T13:41:57.541Z,-65
2022-12-09T13:42:46.885Z,-62
2022-12-09T13:43:34.668Z,-64
2022-12-09T13:44:21.947Z,-63
2022-12-09T13:45:09.281Z,-65
2022-12-09T13:45:56.954Z,-63
2022-12-09T13:46:44.305Z,-62
2022-12-09T13:47:31.691Z,-67
2022-12-09T13:48:18.998Z,-61
2022-12-09T13:49:06.268Z,-64
2022-12-09T13:49:53.592Z,-61
2022-12-09T13:50:40.925Z,-62
2022-12-09T13:51:28.207Z,-62
2022-12-09T13:52:15.593Z,-59
2022-12-09T13:53:03.073Z,-61
2022-12-09T13:53:50.493Z,-61
2022-12-09T13:54:37.933Z,-60
2022-12-09T13:55:25.275Z,-62
2022-12-09T13:56:12.594Z,-59
2022-12-09T13:56:59.952Z,-60
2022-12-09T13:57:47.289Z,-62
2022-12-09T13:58:34.623Z,-64
2022-12-09T13:59:21.999Z,-62
2022-12-09T14:00:09.671Z,-64
2022-12-09T14:01:01.119Z,-62
2022-12-09T14:01:51.661Z,-61
2022-12-09T14:02:39.995Z,-60
2022-12-09T14:03:27.481Z,-60
2022-12-09T14:04:14.816Z,-65
2022-12-09T14:05:02.123Z,-64
2022-12-09T14:05:49.502Z,-61
2022-12-09T14:06:36.784Z,-62
2022-12-09T14:07:24.069Z,-60
2022-12-09T14:08:11.511Z,-60
2022-12-09T14:08:58.859Z,-60
2022-12-09T14:09:46.211Z,-61
2022-12-09T14:10:33.606Z,-60
2022-12-09T14:11:20.890Z,-58
2022-12-09T14:12:08.175Z,-60
2022-12-09T14:12:55.570Z,-57
2022-12-09T14:13:42.860Z,-58
2022-12-09T14:14:30.175Z,-57
2022-12-09T14:15:17.591Z,-58
2022-12-09T14:16:04.994Z,-58
2022-12-09T14:16:52.349Z,-58
2022-12-09T14:17:39.769Z,-60
2022-12-09T14:18:27.056Z,-59
2022-12-09T14:19:15.565Z,-60
2022-12-09T14:20:02.873Z,-61
2022-12-09T14:20:50.183Z,-60
2022-12-09T14:21:37.639Z,-62
2022-12-09T14:22:24.957Z,-61
2022-12-09T14:23:12.334Z,-63
2022-12-09T14:23:59.659Z,-63
2022-12-09T14:24:46.947Z,-61
2022-12-09T14:25:34.405Z,-63
2022-12-09T14:26:21.692Z,-61
2022-12-09T14:27:08.981Z,-64
2022-12-09T14:27:56.440Z,-63
2022-12-09T14:28:43.742Z,-61
2022-12-09T14:29:31.071Z,-63
2022-12-09T14:30:18.464Z,-60
2022-12-09T14:31:08.997Z,-65
2022-12-09T14:31:56.650Z,-64
2022-12-09T14:32:44.098Z,-62
2022-12-09T14:33:31.382Z,-62
2022-12-09T14:34:18.654Z,-63
2022-12-09T14:35:06.079Z,-62
2022-12-09T14:35:53.383Z,-64
2022-12-09T14:36:40.711Z,-63
2022-12-09T14:37:28.107Z,-64
2022-12-09T14:38:15.432Z,-62
2022-12-09T14:39:32.633Z,-65
2022-12-09T14:40:00.046Z,-59
2022-12-09T14:40:47.415Z,-62
2022-12-09T14:41:34.736Z,-60
2022-12-09T14:42:22.065Z,-62
2022-12-09T14:43:09.432Z,-61
2022-12-09T14:43:56.754Z,-63
2022-12-09T14:44:44.070Z,-63
2022-12-09T14:45:31.488Z,-59
2022-12-09T14:46:18.874Z,-61
2022-12-09T14:47:11.892Z,-61
2022-12-09T14:48:00.930Z,-64
2022-12-09T14:48:48.294Z,-59
2022-12-09T14:49:42.745Z,-59
2022-12-09T14:50:32.920Z,-59
2022-12-09T14:51:20.437Z,-59
2022-12-09T14:52:07.727Z,-59
2022-12-09T14:52:55.106Z,-60
2022-12-09T14:53:42.424Z,-60
2022-12-09T14:54:29.741Z,-60
2022-12-09T14:55:17.057Z,-61
2022-12-09T14:56:04.506Z,-60
2022-12-09T14:56:51.831Z,-59
2022-12-09T14:57:39.153Z,-60
2022-12-09T14:58:26.590Z,-59
2022-12-09T14:59:13.924Z,-62
2022-12-09T15:00:01.244Z,-64
2022-12-09T15:00:48.676Z,-61
2022-12-09T15:01:36.022Z,-60
2022-12-09T15:02:23.417Z,-60
2022-12-09T15:03:45.181Z,-60
2022-12-09T15:04:08.231Z,-63
2022-12-09T15:04:55.697Z,-61
2022-12-09T15:05:43.189Z,-60
2022-12-09T15:06:30.460Z,-61
2022-12-09T15:07:17.787Z,-61
2022-12-09T15:08:05.130Z,-60
2022-12-09T15:08:52.489Z,-60
2022-12-09T15:09:39.799Z,-60
2022-12-09T15:10:30.811Z,-63
2022-12-09T15:11:19.451Z,-61
2022-12-09T15:12:06.726Z,-62
2022-12-09T15:12:54.060Z,-61
2022-12-09T15:13:41.368Z,-62
2022-12-09T15:14:28.849Z,-60
2022-12-09T15:15:16.172Z,-59
2022-12-09T15:16:04.009Z,-59
2022-12-09T15:16:51.389Z,-61
2022-12-09T15:17:38.925Z,-62
2022-12-09T15:18:26.244Z,-62
2022-12-09T15:19:19.238Z,-60
2022-12-09T15:20:10.845Z,-59
2022-12-09T15:20:58.262Z,-59
2022-12-09T15:21:45.597Z,-59
2022-12-09T15:22:32.898Z,-61
2022-12-09T15:23:20.353Z,-61
2022-12-09T15:24:07.631Z,-61
2022-12-09T15:24:54.958Z,-61
2022-12-09T15:25:42.366Z,-62
2022-12-09T15:26:29.695Z,-63
2022-12-09T15:27:17.016Z,-62
2022-12-09T15:28:04.489Z,-61
2022-12-09T15:28:51.780Z,-61
2022-12-09T15:29:39.114Z,-60
2022-12-09T15:30:26.490Z,-60
2022-12-09T15:31:13.859Z,-61
2022-12-09T15:32:01.205Z,-64
2022-12-09T15:32:48.637Z,-63
2022-12-09T15:33:35.920Z,-62
2022-12-09T15:34:26.469Z,-63
2022-12-09T15:35:13.998Z,-62
2022-12-09T15:36:01.417Z,-62
2022-12-09T15:36:48.701Z,-64
2022-12-09T15:37:36.024Z,-69
2022-12-09T15:38:23.447Z,-64
2022-12-09T15:39:10.734Z,-62
2022-12-09T15:39:58.057Z,-63
2022-12-09T15:40:45.469Z,-62
2022-12-09T15:41:32.798Z,-62
2022-12-09T15:42:20.127Z,-63
2022-12-09T15:43:07.535Z,-62
2022-12-09T15:43:55.386Z,-61
2022-12-09T15:44:42.941Z,-63
2022-12-09T15:45:30.371Z,-61
2022-12-09T15:46:17.708Z,-62
2022-12-09T15:47:09.819Z,-64
2022-12-09T15:47:57.492Z,-61
2022-12-09T15:48:44.896Z,-61
2022-12-09T15:49:32.223Z,-60
2022-12-09T15:50:19.566Z,-60
2022-12-09T15:51:06.938Z,-61
2022-12-09T15:51:54.219Z,-61
2022-12-09T15:52:41.614Z,-61
2022-12-09T15:53:28.992Z,-62
2022-12-09T15:54:16.297Z,-60
2022-12-09T15:55:03.580Z,-61
2022-12-09T15:55:50.966Z,-60
2022-12-09T15:56:38.251Z,-60